Time;durP1;ratioP1;P1;durP2;ratioP2;P2;SDS_P1;SDS_P2;PMS_P1;PMS_P2;Temp;Humidity;BMP_temperature;BMP_pressure;BME280_temperature;BME280_humidity;BME280_pressure;Samples;Min_cycle;Max_cycle;Signal;HPM_P1;HPM_P2
2023/10/09 00:02:12;;;;;;;1999.90;999.90;;;11.00;99.90;;;;;;5177867;27;20038;-75
2023/10/09 00:04:41;;;;;;;1999.90;999.90;;;11.00;99.90;;;;;;5177587;27;20474;-75
2023/10/09 00:07:08;;;;;;;1999.90;999.90;;;10.90;99.90;;;;;;5182301;27;20106;-75
2023/10/09 00:09:50;;;;;;;1999.90;999.90;;;10.90;99.90;;;;;;5180747;27;20037;-75
2023/10/09 00:12:23;;;;;;;1999.90;999.90;;;11.00;99.90;;;;;;5181369;27;20035;-75
2023/10/09 00:14:50;;;;;;;1999.90;999.90;;;10.90;99.90;;;;;;5182464;27;20104;-75
2023/10/09 00:17:19;;;;;;;1999.90;999.90;;;11.00;99.90;;;;;;5180831;27;20030;-75
2023/10/09 00:19:51;;;;;;;1999.90;999.90;;;11.00;99.90;;;;;;5181009;27;20037;-75
2023/10/09 00:22:26;;;;;;;1999.90;999.90;;;10.90;99.90;;;;;;5180832;27;20058;-75
2023/10/09 00:25:11;;;;;;;1999.90;999.90;;;11.00;99.90;;;;;;5181068;27;20113;-75
2023/10/09 00:27:42;;;;;;;1999.90;999.90;;;10.90;99.90;;;;;;5180791;27;20037;-75
2023/10/09 00:30:09;;;;;;;1999.90;999.90;;;10.90;99.90;;;;;;5180833;27;20038;-75
2023/10/09 00:32:37;;;;;;;1999.90;999.90;;;10.90;99.90;;;;;;5180785;27;20031;-75
2023/10/09 00:35:35;;;;;;;1999.90;999.90;;;10.90;99.90;;;;;;5180825;27;20027;-76
2023/10/09 00:37:51;;;;;;;1999.90;999.90;;;10.80;99.90;;;;;;5181210;27;20568;-76
2023/10/09 00:40:28;;;;;;;1999.90;999.90;;;10.90;99.90;;;;;;5182364;27;20027;-75
2023/10/09 00:42:55;;;;;;;1999.90;999.90;;;10.80;99.90;;;;;;5180395;27;20064;-75
2023/10/09 00:45:25;;;;;;;1999.90;999.90;;;10.80;99.90;;;;;;5180607;27;20552;-76
2023/10/09 00:47:59;;;;;;;1999.90;999.90;;;10.80;99.90;;;;;;5180271;27;20038;-75
2023/10/09 00:50:25;;;;;;;1999.90;999.90;;;10.80;99.90;;;;;;5181495;27;20030;-75
2023/10/09 00:53:01;;;;;;;1999.90;999.90;;;10.80;99.90;;;;;;5180534;27;20043;-75
2023/10/09 00:55:37;;;;;;;1999.90;999.90;;;10.80;99.90;;;;;;5181782;27;20039;-75
2023/10/09 00:58:09;;;;;;;1999.90;999.90;;;10.90;99.90;;;;;;5180133;27;20062;-75
2023/10/09 01:05:58;;;;;;;1999.90;999.90;;;11.00;99.90;;;;;;5178301;27;20475;-80
2023/10/09 01:08:38;;;;;;;1999.90;999.90;;;10.90;99.90;;;;;;5180415;27;20396;-75
2023/10/09 01:11:09;;;;;;;1999.90;999.90;;;11.00;99.90;;;;;;5181938;27;20048;-75
2023/10/09 01:16:15;;;;;;;1999.90;999.90;;;11.00;99.90;;;;;;5177554;27;20058;-76
2023/10/09 01:18:41;;;;;;;1999.90;999.90;;;11.00;99.90;;;;;;5179442;27;20035;-78
2023/10/09 01:21:07;;;;;;;1999.90;999.90;;;11.00;99.90;;;;;;5180270;27;20026;-75
2023/10/09 01:23:32;;;;;;;1999.90;999.90;;;11.00;99.90;;;;;;5181208;27;20504;-75
2023/10/09 01:25:58;;;;;;;1999.90;999.90;;;11.10;99.90;;;;;;5179764;27;20027;-75
2023/10/09 01:28:26;;;;;;;1999.90;999.90;;;11.00;99.90;;;;;;5180894;27;20046;-75
2023/10/09 01:30:51;;;;;;;1999.90;999.90;;;11.00;99.90;;;;;;5181423;27;20023;-75
2023/10/09 01:33:24;;;;;;;1999.90;999.90;;;11.10;99.90;;;;;;5179206;27;20035;-75
2023/10/09 01:35:56;;;;;;;1999.90;999.90;;;11.10;99.90;;;;;;5180986;27;20034;-75
2023/10/09 01:38:31;;;;;;;1999.90;999.90;;;11.20;99.90;;;;;;5181249;27;20453;-75
2023/10/09 01:41:06;;;;;;;1999.90;999.90;;;11.20;99.90;;;;;;5181367;27;20030;-75
2023/10/09 01:43:34;;;;;;;1999.90;999.90;;;11.30;99.90;;;;;;5178941;27;20035;-75
2023/10/09 01:46:01;;;;;;;1999.90;999.90;;;11.30;99.90;;;;;;5178901;27;20031;-76
2023/10/09 01:48:27;;;;;;;1999.90;999.90;;;11.40;99.90;;;;;;5179042;27;20034;-75
2023/10/09 01:50:53;;;;;;;1999.90;999.90;;;11.50;99.90;;;;;;5180742;27;20030;-75
2023/10/09 01:53:22;;;;;;;1999.90;999.90;;;11.40;99.90;;;;;;5179382;27;20073;-75
2023/10/09 01:55:49;;;;;;;1999.90;999.90;;;11.40;99.90;;;;;;5180357;27;20062;-75
2023/10/09 01:58:27;;;;;;;1999.90;999.90;;;11.40;99.90;;;;;;5179537;27;20122;-75
2023/10/09 02:00:56;;;;;;;1999.90;999.90;;;11.40;99.90;;;;;;5179332;27;20027;-75
2023/10/09 02:03:26;;;;;;;1999.90;999.90;;;11.50;99.90;;;;;;5179308;27;20060;-75
2023/10/09 02:06:17;;;;;;;1999.90;999.90;;;11.50;99.90;;;;;;5178748;27;20455;-75
2023/10/09 02:08:49;;;;;;;1999.90;999.90;;;11.50;99.90;;;;;;5178811;27;20053;-75
2023/10/09 02:11:24;;;;;;;1999.90;999.90;;;11.40;99.90;;;;;;5179020;27;20035;-75
2023/10/09 02:14:01;;;;;;;1999.90;999.90;;;11.40;99.90;;;;;;5178921;27;20066;-76
2023/10/09 02:16:29;;;;;;;1999.90;999.90;;;11.40;99.90;;;;;;5179035;27;20495;-75
2023/10/09 02:18:59;;;;;;;1999.90;999.90;;;11.50;99.90;;;;;;5178622;27;20042;-75
2023/10/09 02:21:33;;;;;;;1999.90;999.90;;;11.50;99.90;;;;;;5178679;27;20034;-75
2023/10/09 02:24:26;;;;;;;1999.90;999.90;;;11.60;99.90;;;;;;5178759;27;20035;-75
2023/10/09 02:29:23;;;;;;;1999.90;999.90;;;11.60;99.90;;;;;;5179039;27;20035;-75
2023/10/09 02:31:51;;;;;;;1999.90;999.90;;;11.60;99.90;;;;;;5178757;27;20027;-75
2023/10/09 02:34:21;;;;;;;1999.90;999.90;;;11.70;99.90;;;;;;5178292;27;20056;-75
2023/10/09 02:36:57;;;;;;;1999.90;999.90;;;11.70;99.90;;;;;;5178085;27;20026;-77
2023/10/09 02:39:24;;;;;;;1999.90;999.90;;;11.70;99.90;;;;;;5179674;27;20037;-75
2023/10/09 02:41:58;;;;;;;1999.90;999.90;;;11.70;99.90;;;;;;5179783;27;20035;-76
2023/10/09 02:44:26;;;;;;;1999.90;999.90;;;11.70;99.90;;;;;;5178086;27;20050;-75
2023/10/09 02:46:57;;;;;;;1999.90;999.90;;;11.80;99.90;;;;;;5179318;27;20490;-75
2023/10/09 02:49:23;;;;;;;1999.90;999.90;;;11.80;99.90;;;;;;5178296;27;20059;-75
2023/10/09 02:51:53;;;;;;;1999.90;999.90;;;11.70;99.90;;;;;;5179346;27;20496;-75
2023/10/09 02:54:18;;;;;;;1999.90;999.90;;;11.70;99.90;;;;;;5179476;27;20030;-75
2023/10/09 02:56:47;;;;;;;1999.90;999.90;;;11.70;99.90;;;;;;5179729;27;20031;-75
2023/10/09 02:59:14;;;;;;;1999.90;999.90;;;11.70;99.90;;;;;;5179141;27;20035;-75
2023/10/09 03:01:40;;;;;;;1999.90;999.90;;;11.80;99.90;;;;;;5179513;27;20023;-75
2023/10/09 03:04:10;;;;;;;1999.90;999.90;;;11.70;99.90;;;;;;5178137;27;20117;-75
2023/10/09 03:06:43;;;;;;;1999.90;999.90;;;11.70;99.90;;;;;;5177990;27;20117;-75
2023/10/09 03:09:18;;;;;;;1999.90;999.90;;;11.70;99.90;;;;;;5177949;27;20515;-75
2023/10/09 03:11:53;;;;;;;1999.90;999.90;;;11.80;99.90;;;;;;5179849;27;20027;-75
2023/10/09 03:14:26;;;;;;;1999.90;999.90;;;11.70;99.90;;;;;;5177766;27;20042;-75
2023/10/09 03:16:56;;;;;;;1999.90;999.90;;;11.70;99.90;;;;;;5177672;27;20070;-77
2023/10/09 03:19:22;;;;;;;1999.90;999.90;;;11.70;99.90;;;;;;5177946;27;20042;-75
2023/10/09 03:21:47;;;;;;;1999.90;999.90;;;11.80;99.90;;;;;;5177580;27;20027;-75
2023/10/09 03:24:13;;;;;;;1999.90;999.90;;;11.80;99.90;;;;;;5179101;27;20092;-75
2023/10/09 03:26:39;;;;;;;1999.90;999.90;;;11.80;99.90;;;;;;5177818;27;20027;-75
2023/10/09 03:29:10;;;;;;;1999.90;999.90;;;11.70;99.90;;;;;;5177677;27;20119;-76
2023/10/09 03:31:39;;;;;;;1999.90;999.90;;;11.70;99.90;;;;;;5178055;27;20110;-75
2023/10/09 03:34:06;;;;;;;1999.90;999.90;;;11.60;99.90;;;;;;5177724;27;20035;-75
2023/10/09 03:36:37;;;;;;;1999.90;999.90;;;11.60;99.90;;;;;;5177452;27;20030;-75
2023/10/09 03:39:07;;;;;;;1999.90;999.90;;;11.60;99.90;;;;;;5177194;27;20031;-75
2023/10/09 03:41:40;;;;;;;1999.90;999.90;;;11.50;99.90;;;;;;5177764;27;20583;-76
2023/10/09 03:44:06;;;;;;;1999.90;999.90;;;11.40;99.90;;;;;;5177279;27;20162;-78
2023/10/09 03:46:33;;;;;;;1999.90;999.90;;;11.50;99.90;;;;;;5178336;27;20955;-75
2023/10/09 03:49:02;;;;;;;1999.90;999.90;;;11.40;99.90;;;;;;5176948;27;20046;-75
2023/10/09 03:51:29;;;;;;;1999.90;999.90;;;11.40;99.90;;;;;;5177514;27;20088;-75
2023/10/09 03:53:55;;;;;;;1999.90;999.90;;;11.40;99.90;;;;;;5177214;27;20035;-75
2023/10/09 03:56:21;;;;;;;1999.90;999.90;;;11.40;99.90;;;;;;5195804;22;20027;-74
2023/10/09 03:58:54;;;;;;;1999.90;999.90;;;11.30;99.90;;;;;;5115423;28;20044;-75
2023/10/09 04:01:37;;;;;;;1999.90;999.90;;;11.30;99.90;;;;;;5115291;28;20032;-76
2023/10/09 04:04:06;;;;;;;1999.90;999.90;;;11.30;99.90;;;;;;5115277;28;20085;-78
2023/10/09 04:06:33;;;;;;;1999.90;999.90;;;11.20;99.90;;;;;;5114773;28;20119;-77
2023/10/09 04:09:14;;;;;;;1999.90;999.90;;;11.20;99.90;;;;;;5096707;28;20040;-77
2023/10/09 04:11:43;;;;;;;1999.90;999.90;;;11.20;99.90;;;;;;5115296;28;20032;-77
2023/10/09 04:14:14;;;;;;;1999.90;999.90;;;11.20;99.90;;;;;;5114977;28;20082;-76
2023/10/09 04:17:32;;;;;;;1999.90;999.90;;;11.20;99.90;;;;;;5096064;28;20032;-77
2023/10/09 04:19:38;;;;;;;1999.90;999.90;;;11.10;99.90;;;;;;5113096;28;20044;-77
2023/10/09 04:22:08;;;;;;;1999.90;999.90;;;11.10;99.90;;;;;;5096528;28;20034;-78
2023/10/09 04:24:44;;;;;;;1999.90;999.90;;;11.10;99.90;;;;;;5114942;28;20034;-78
2023/10/09 04:27:10;;;;;;;1999.90;999.90;;;11.10;99.90;;;;;;5114879;28;20488;-77
2023/10/09 04:29:38;;;;;;;1999.90;999.90;;;11.10;99.90;;;;;;5114991;28;20040;-77
2023/10/09 04:32:07;;;;;;;1999.90;999.90;;;11.10;99.90;;;;;;5096407;28;20474;-77
2023/10/09 04:34:48;;;;;;;1999.90;999.90;;;11.10;99.90;;;;;;5096351;28;20067;-78
2023/10/09 04:39:46;;;;;;;1999.90;999.90;;;11.10;99.90;;;;;;5114794;28;20493;-77
2023/10/09 04:47:38;;;;;;;1999.90;999.90;;;11.10;99.90;;;;;;5112897;28;20036;-77
2023/10/09 05:03:29;;;;;;;1999.90;999.90;;;11.40;99.90;;;;;;5114853;28;20032;-77
2023/10/09 05:08:29;;;;;;;1999.90;999.90;;;11.40;99.90;;;;;;5117757;28;20039;-78
2023/10/09 05:19:08;;;;;;;1999.90;999.90;;;11.50;99.90;;;;;;5114498;28;20032;-76
2023/10/09 05:21:36;;;;;;;1999.90;999.90;;;11.50;99.90;;;;;;5099106;28;20126;-77
2023/10/09 05:31:57;;;;;;;1999.90;999.90;;;11.60;99.90;;;;;;5114244;28;20032;-76
2023/10/09 05:37:25;;;;;;;1999.90;999.90;;;11.60;99.90;;;;;;5117226;28;20505;-76
2023/10/09 05:40:22;;;;;;;1999.90;999.90;;;11.50;99.90;;;;;;5117506;28;20032;-76
2023/10/09 05:42:44;;;;;;;1999.90;999.90;;;11.50;99.90;;;;;;5116907;28;20111;-77
2023/10/09 05:47:56;;;;;;;1999.90;999.90;;;11.60;99.90;;;;;;5115728;28;20103;-77
2023/10/09 06:08:26;;;;;;;1999.90;999.90;;;11.90;99.90;;;;;;5116780;28;20123;-77
2023/10/09 06:13:46;;;;;;;1999.90;999.90;;;12.00;99.90;;;;;;5116914;28;20083;-77
2023/10/09 06:25:08;;;;;;;1999.90;999.90;;;12.10;99.90;;;;;;5083697;28;20040;-78
2023/10/09 06:30:14;;;;;;;1999.90;999.90;;;12.30;99.90;;;;;;5113479;28;20056;-77
2023/10/09 06:35:31;;;;;;;1999.90;999.90;;;12.30;99.90;;;;;;5116604;28;20036;-77
2023/10/09 06:43:31;;;;;;;1999.90;999.90;;;12.40;99.90;;;;;;5113636;28;20036;-77
2023/10/09 06:45:58;;;;;;;1999.90;999.90;;;12.50;99.90;;;;;;5115784;28;20445;-77
2023/10/09 06:51:25;;;;;;;1999.90;999.90;;;12.60;99.90;;;;;;5113166;28;20036;-77
2023/10/09 06:54:04;;;;;;;1999.90;999.90;;;12.80;99.90;;;;;;5115533;28;20040;-77
2023/10/09 06:58:59;;;;;;;1999.90;999.90;;;13.00;99.90;;;;;;5112923;28;20028;-78
2023/10/09 07:01:51;;;;;;;1999.90;999.90;;;13.10;99.90;;;;;;5116189;28;20102;-77
2023/10/09 07:04:45;;;;;;;1999.90;999.90;;;13.10;99.90;;;;;;5115132;28;20044;-77
2023/10/09 07:07:16;;;;;;;1999.90;999.90;;;13.20;99.90;;;;;;5114968;28;20778;-77
2023/10/09 07:12:26;;;;;;;1999.90;999.90;;;13.40;99.90;;;;;;5116135;28;20032;-77
2023/10/09 07:15:01;;;;;;;1999.90;999.90;;;13.50;99.90;;;;;;5115179;27;20036;-77
2023/10/09 07:17:44;;;;;;;1999.90;999.90;;;13.50;99.90;;;;;;5115464;28;20035;-77
2023/10/09 07:20:14;;;;;;;1999.90;999.90;;;13.50;99.90;;;;;;5097342;28;20036;-77
2023/10/09 07:22:52;;;;;;;1999.90;999.90;;;13.70;99.90;;;;;;5115334;28;20504;-77
2023/10/09 07:28:18;;;;;;;1999.90;999.90;;;13.90;99.90;;;;;;5115704;28;20032;-77
2023/10/09 07:30:43;;;;;;;1999.90;999.90;;;13.90;99.90;;;;;;5115798;28;20401;-79
2023/10/09 07:38:35;;;;;;;1999.90;999.90;;;14.10;99.90;;;;;;5115033;28;20094;-78
2023/10/09 07:46:52;;;;;;;1999.90;999.90;;;14.60;99.90;;;;;;5111787;28;20502;-77
2023/10/09 07:49:24;;;;;;;1999.90;999.90;;;14.60;99.90;;;;;;5115214;28;20036;-77
2023/10/09 07:51:52;;;;;;;1999.90;999.90;;;14.80;99.90;;;;;;5115688;28;20123;-77
2023/10/09 07:54:31;;;;;;;1999.90;999.90;;;14.80;99.90;;;;;;5096660;28;20040;-78
2023/10/09 07:57:08;;;;;;;1999.90;999.90;;;14.90;99.90;;;;;;5095722;28;20539;-78
2023/10/09 07:59:41;;;;;;;1999.90;999.90;;;15.00;99.90;;;;;;5096613;28;20102;-78
2023/10/09 08:02:13;;;;;;;1999.90;999.90;;;15.10;99.90;;;;;;5115191;28;20139;-77
2023/10/09 08:04:48;;;;;;;1999.90;999.90;;;15.20;99.90;;;;;;5115387;28;20123;-77
2023/10/09 08:07:25;;;;;;;1999.90;999.90;;;15.20;99.90;;;;;;5114986;28;20032;-77
2023/10/09 08:12:57;;;;;;;1999.90;999.90;;;15.30;99.90;;;;;;5115212;28;20029;-77
2023/10/09 08:15:34;;;;;;;1999.90;999.90;;;15.40;99.90;;;;;;5096514;28;20044;-78
2023/10/09 08:18:18;;;;;;;1999.90;999.90;;;15.50;99.90;;;;;;5096069;28;20029;-78
2023/10/09 08:23:48;;;;;;;1999.90;999.90;;;15.60;99.90;;;;;;5111784;28;20052;-78
2023/10/09 08:26:32;;;;;;;1999.90;999.90;;;15.60;99.90;;;;;;5115475;27;20074;-78
2023/10/09 08:29:17;;;;;;;1999.90;999.90;;;15.70;99.90;;;;;;5118598;28;20051;-78
2023/10/09 08:31:46;;;;;;;1999.90;999.90;;;15.90;99.90;;;;;;5118469;28;20409;-77
2023/10/09 08:34:24;;;;;;;1999.90;999.90;;;16.00;99.90;;;;;;5099796;28;20070;-77
2023/10/09 08:36:53;;;;;;;1999.90;999.90;;;16.20;99.90;;;;;;5099598;28;20032;-77
2023/10/09 08:39:27;;;;;;;1999.90;999.90;;;16.40;99.90;;;;;;5118380;28;20102;-77
2023/10/09 08:41:58;;;;;;;1999.90;999.90;;;16.60;99.90;;;;;;5118459;28;20028;-78
2023/10/09 08:44:26;;;;;;;1999.90;999.90;;;16.90;99.90;;;;;;5118419;28;20089;-77
2023/10/09 08:46:54;;;;;;;1999.90;999.90;;;16.80;99.90;;;;;;5117769;28;20028;-78
2023/10/09 08:49:21;;;;;;;1999.90;999.90;;;16.80;99.90;;;;;;5099699;28;20078;-78
2023/10/09 08:51:48;;;;;;;1999.90;999.90;;;17.00;99.90;;;;;;5099594;28;20119;-77
2023/10/09 08:54:14;;;;;;;1999.90;999.90;;;17.10;99.90;;;;;;5118052;28;20028;-78
2023/10/09 08:56:51;;;;;;;1999.90;999.90;;;17.40;99.90;;;;;;5117330;28;20056;-78
2023/10/09 08:59:20;;;;;;;1999.90;999.90;;;17.40;99.90;;;;;;5118167;28;20040;-78
2023/10/09 09:01:51;;;;;;;1999.90;999.90;;;17.50;99.90;;;;;;5099385;28;20032;-79
2023/10/09 09:04:38;;;;;;;1999.90;999.90;;;17.60;99.90;;;;;;5118110;28;20032;-77
2023/10/09 09:07:04;;;;;;;1999.90;999.90;;;17.70;99.90;;;;;;5099071;28;20032;-77
2023/10/09 09:09:32;;;;;;;1999.90;999.90;;;17.80;99.90;;;;;;5118039;28;20043;-79
2023/10/09 09:11:59;;;;;;;1999.90;999.90;;;18.00;99.90;;;;;;5118020;28;20025;-78
2023/10/09 09:14:37;;;;;;;1999.90;999.90;;;18.10;99.90;;;;;;5117774;28;20032;-78
2023/10/09 09:17:05;;;;;;;1999.90;999.90;;;18.30;99.90;;;;;;5117529;28;20032;-78
2023/10/09 09:19:32;;;;;;;1999.90;999.90;;;18.60;99.90;;;;;;5099183;28;20032;-78
2023/10/09 09:22:11;;;;;;;1999.90;999.90;;;18.60;99.90;;;;;;5099226;28;20035;-78
2023/10/09 09:24:37;;;;;;;1999.90;999.90;;;18.80;99.90;;;;;;5099136;28;20032;-78
2023/10/09 09:27:12;;;;;;;1999.90;999.90;;;19.00;99.90;;;;;;5117199;28;20028;-78
2023/10/09 09:29:38;;;;;;;1999.90;999.90;;;19.30;99.90;;;;;;5099122;28;20043;-79
2023/10/09 09:32:18;;;;;;;1999.90;999.90;;;19.50;99.90;;;;;;5117762;28;20032;-78
2023/10/09 09:34:49;;;;;;;1999.90;999.90;;;19.60;99.90;;;;;;5117480;28;20036;-78
2023/10/09 09:37:28;;;;;;;1999.90;999.90;;;19.70;99.90;;;;;;5116791;28;20081;-78
2023/10/09 09:39:55;;;;;;;1999.90;999.90;;;20.10;99.90;;;;;;5098984;28;20032;-78
2023/10/09 09:42:24;;;;;;;1999.90;999.90;;;20.20;99.90;;;;;;5098804;28;20040;-78
2023/10/09 09:44:55;;;;;;;1999.90;999.90;;;20.30;99.90;;;;;;5098858;28;20101;-78
2023/10/09 09:47:26;;;;;;;1999.90;999.90;;;20.30;99.90;;;;;;5117091;28;20032;-80
2023/10/09 09:49:53;;;;;;;1999.90;999.90;;;20.30;99.90;;;;;;5117568;28;20039;-78
2023/10/09 09:52:19;;;;;;;1999.90;999.90;;;20.10;99.90;;;;;;5117180;28;20060;-78
2023/10/09 09:54:49;;;;;;;1999.90;999.90;;;20.10;99.90;;;;;;5117138;28;20103;-78
2023/10/09 09:57:25;;;;;;;1999.90;999.90;;;20.20;99.90;;;;;;5118020;28;20036;-78
2023/10/09 09:59:55;;;;;;;1999.90;999.90;;;20.30;99.90;;;;;;5120987;28;20115;-78
2023/10/09 10:02:33;;;;;;;1999.90;999.90;;;20.40;99.90;;;;;;5120149;28;20111;-78
2023/10/09 10:05:05;;;;;;;1999.90;999.90;;;20.30;99.90;;;;;;5119901;28;20909;-78
2023/10/09 10:07:41;;;;;;;1999.90;999.90;;;20.10;99.90;;;;;;5120349;28;20040;-78
2023/10/09 10:10:47;;;;;;;1999.90;999.90;;;20.10;99.90;;;;;;5120969;28;20028;-78
2023/10/09 10:13:15;;;;;;;1999.90;999.90;;;20.10;99.90;;;;;;5100931;28;20108;-78
2023/10/09 10:16:02;;;;;;;1999.90;999.90;;;20.00;99.90;;;;;;5100525;28;20094;-78
2023/10/09 10:18:53;;;;;;;1999.90;999.90;;;20.00;99.90;;;;;;5119303;28;20482;-78
2023/10/09 10:21:33;;;;;;;1999.90;999.90;;;20.10;99.90;;;;;;5119522;28;20120;-78
2023/10/09 10:24:10;;;;;;;1999.90;999.90;;;20.10;99.90;;;;;;5100192;28;20527;-79
2023/10/09 10:26:36;;;;;;;1999.90;999.90;;;20.30;99.90;;;;;;5119124;28;20032;-78
2023/10/09 10:29:33;;;;;;;1999.90;999.90;;;20.30;99.90;;;;;;5119288;28;20036;-78
2023/10/09 10:32:06;;;;;;;1999.90;999.90;;;20.30;99.90;;;;;;5119709;28;20493;-79
2023/10/09 10:34:56;;;;;;;1999.90;999.90;;;20.40;99.90;;;;;;5100467;28;20048;-78
2023/10/09 10:37:44;;;;;;;1999.90;999.90;;;20.40;99.90;;;;;;5119524;28;20040;-78
2023/10/09 10:40:15;;;;;;;1999.90;999.90;;;20.50;99.90;;;;;;5119157;28;20032;-78
2023/10/09 10:43:09;;;;;;;1999.90;999.90;;;20.70;99.90;;;;;;5119460;28;20028;-77
2023/10/09 10:45:35;;;;;;;1999.90;999.90;;;20.70;99.90;;;;;;5118722;28;20043;-78
2023/10/09 10:48:06;;;;;;;1999.90;999.90;;;20.90;99.90;;;;;;5118376;28;20025;-78
2023/10/09 10:53:17;;;;;;;1999.90;999.90;;;21.00;99.90;;;;;;5120447;28;20521;-78
2023/10/09 11:01:50;;;;;;;1999.90;999.90;;;21.10;99.90;;;;;;5115453;28;20032;-78
2023/10/09 11:04:24;;;;;;;1999.90;999.90;;;21.10;99.90;;;;;;5118044;28;20028;-79
2023/10/09 11:06:51;;;;;;;1999.90;999.90;;;20.80;99.90;;;;;;5117509;28;20055;-78
2023/10/09 11:09:23;;;;;;;1999.90;999.90;;;20.50;99.90;;;;;;5117527;28;20032;-78
2023/10/09 11:12:11;;;;;;;1999.90;999.90;;;20.30;99.90;;;;;;5098848;28;20032;-78
2023/10/09 11:14:46;;;;;;;1999.90;999.90;;;20.20;99.90;;;;;;5117797;28;20063;-78
2023/10/09 11:17:25;;;;;;;1999.90;999.90;;;20.20;99.90;;;;;;5097669;28;20840;-78
2023/10/09 11:19:52;;;;;;;1999.90;999.90;;;20.20;99.90;;;;;;5118139;28;20075;-78
2023/10/09 11:22:36;;;;;;;1999.90;999.90;;;20.30;99.90;;;;;;5099251;28;20028;-78
2023/10/09 11:25:11;;;;;;;1999.90;999.90;;;20.50;99.90;;;;;;5118030;28;20035;-78
2023/10/09 11:27:39;;;;;;;1999.90;999.90;;;20.60;99.90;;;;;;5117914;28;20115;-78
2023/10/09 11:30:10;;;;;;;1999.90;999.90;;;20.50;99.90;;;;;;5117771;28;20028;-78
2023/10/09 11:32:38;;;;;;;1999.90;999.90;;;20.60;99.90;;;;;;5117898;28;20580;-78
2023/10/09 11:35:19;;;;;;;1999.90;999.90;;;20.90;99.90;;;;;;5098162;28;20036;-78
2023/10/09 11:37:54;;;;;;;1999.90;999.90;;;21.00;99.90;;;;;;5116710;28;20032;-78
2023/10/09 11:43:17;;;;;;;1999.90;999.90;;;21.10;99.90;;;;;;5117207;28;20028;-78
2023/10/09 11:45:54;;;;;;;1999.90;999.90;;;21.10;99.90;;;;;;5117612;28;20408;-78
2023/10/09 11:48:46;;;;;;;1999.90;999.90;;;21.20;99.90;;;;;;5099028;28;20032;-78
2023/10/09 11:51:18;;;;;;;1999.90;999.90;;;21.40;99.90;;;;;;5116880;28;20521;-78
2023/10/09 11:53:54;;;;;;;1999.90;999.90;;;21.60;99.90;;;;;;5117772;28;20032;-79
2023/10/09 11:56:22;;;;;;;1999.90;999.90;;;21.90;99.90;;;;;;5116758;28;20126;-79
2023/10/09 11:58:50;;;;;;;1999.90;999.90;;;22.20;99.90;;;;;;5099416;28;20515;-79
2023/10/09 12:01:17;;;;;;;1999.90;999.90;;;22.60;99.90;;;;;;5121262;27;20024;-79
2023/10/09 12:03:49;;;;;;;1999.90;999.90;;;22.80;99.90;;;;;;5103952;28;20058;-79
2023/10/09 12:06:18;;;;;;;1999.90;999.90;;;22.90;99.90;;;;;;5122511;28;20557;-78
2023/10/09 12:08:48;;;;;;;1999.90;999.90;;;22.80;99.90;;;;;;5103413;28;20115;-79
2023/10/09 12:11:15;;;;;;;1999.90;999.90;;;22.90;99.90;;;;;;5122661;28;20036;-78
2023/10/09 12:13:45;;;;;;;1999.90;999.90;;;22.90;99.90;;;;;;5103202;28;20493;-78
2023/10/09 12:16:11;;;;;;;1999.90;999.90;;;22.80;99.90;;;;;;5102954;28;20058;-78
2023/10/09 12:18:39;;;;;;;1999.90;999.90;;;22.50;99.90;;;;;;5103438;28;20031;-78
2023/10/09 12:21:06;;;;;;;1999.90;999.90;;;22.70;99.90;;;;;;5104726;28;20032;-78
2023/10/09 12:23:35;;;;;;;1999.90;999.90;;;22.60;99.90;;;;;;5104428;28;20028;-79
2023/10/09 12:26:04;;;;;;;1999.90;999.90;;;22.60;99.90;;;;;;5127883;28;20780;-78
2023/10/09 12:28:32;;;;;;;1999.90;999.90;;;22.90;99.70;;;;;;5126674;28;20449;-79
2023/10/09 12:31:01;;;;;;;1999.90;999.90;;;23.10;99.70;;;;;;5108058;28;20055;-79
2023/10/09 12:33:27;;;;;;;1999.90;999.90;;;23.30;99.70;;;;;;5124668;28;20035;-79
2023/10/09 12:35:59;;;;;;;1999.90;999.90;;;23.20;99.70;;;;;;5123565;28;20032;-79
2023/10/09 12:38:31;;;;;;;1999.90;999.90;;;23.20;99.70;;;;;;5119599;28;20020;-79
2023/10/09 12:41:26;;;;;;;1999.90;999.90;;;23.20;99.80;;;;;;5100400;28;20119;-79
2023/10/09 12:43:52;;;;;;;1999.90;999.90;;;23.00;99.90;;;;;;5119218;28;20020;-78
2023/10/09 12:46:22;;;;;;;1999.90;999.90;;;22.90;99.90;;;;;;5100056;28;20028;-78
2023/10/09 12:48:49;;;;;;;1999.90;999.90;;;22.90;99.60;;;;;;5119331;28;20125;-78
2023/10/09 12:51:17;;;;;;;1999.90;999.90;;;23.10;99.70;;;;;;5100749;28;20089;-78
2023/10/09 12:53:54;;;;;;;1999.90;999.90;;;23.50;98.80;;;;;;5118857;28;20111;-78
2023/10/09 12:56:22;;;;;;;1999.90;999.90;;;23.50;98.70;;;;;;5118559;28;20039;-78
2023/10/09 12:58:54;;;;;;;1999.90;999.90;;;23.70;98.30;;;;;;5101813;28;20039;-79
2023/10/09 13:01:20;;;;;;;1999.90;999.90;;;23.90;97.70;;;;;;5121322;28;20028;-78
2023/10/09 13:03:49;;;;;;;1999.90;999.90;;;23.80;98.00;;;;;;5119954;28;20492;-78
2023/10/09 13:06:15;;;;;;;1999.90;999.90;;;23.70;98.10;;;;;;5118258;28;20089;-79
2023/10/09 13:08:42;;;;;;;1999.90;999.90;;;23.60;98.50;;;;;;5101133;28;20078;-79
2023/10/09 13:11:11;;;;;;;1999.90;999.90;;;23.70;97.60;;;;;;5100349;28;20488;-78
2023/10/09 13:13:42;;;;;;;1999.90;999.90;;;23.80;97.00;;;;;;5118655;28;20048;-79
2023/10/09 13:16:20;;;;;;;1999.90;999.90;;;23.80;96.50;;;;;;5119274;28;20512;-79
2023/10/09 13:18:49;;;;;;;1999.90;999.90;;;23.90;96.70;;;;;;5119791;28;20032;-78
2023/10/09 13:21:20;;;;;;;1999.90;999.90;;;24.10;97.60;;;;;;5101299;28;20050;-79
2023/10/09 13:23:49;;;;;;;1999.90;999.90;;;24.10;96.00;;;;;;5120847;28;20039;-78
2023/10/09 13:26:24;;;;;;;1999.90;999.90;;;24.10;95.70;;;;;;5118161;28;20389;-79
2023/10/09 13:28:51;;;;;;;1999.90;999.90;;;24.10;96.40;;;;;;5100197;28;20036;-78
2023/10/09 13:31:17;;;;;;;1999.90;999.90;;;24.40;95.10;;;;;;5118456;28;20107;-79
2023/10/09 13:33:43;;;;;;;1999.90;999.90;;;24.60;95.30;;;;;;5099970;28;20028;-79
2023/10/09 13:36:19;;;;;;;1999.90;999.90;;;24.50;95.50;;;;;;5117950;28;20032;-79
2023/10/09 13:38:45;;;;;;;1999.90;999.90;;;24.50;93.40;;;;;;5118898;28;20031;-78
2023/10/09 13:41:15;;;;;;;1999.90;999.90;;;24.50;94.10;;;;;;5100604;28;20032;-78
2023/10/09 13:43:41;;;;;;;1999.90;999.90;;;24.60;93.40;;;;;;5119315;28;20481;-79
2023/10/09 13:46:08;;;;;;;1999.90;999.90;;;24.70;92.40;;;;;;5118758;28;20055;-78
2023/10/09 13:48:41;;;;;;;1999.90;999.90;;;24.80;91.50;;;;;;5118506;28;20043;-79
2023/10/09 13:51:18;;;;;;;1999.90;999.90;;;24.90;91.50;;;;;;5119264;28;20028;-78
2023/10/09 13:53:47;;;;;;;1999.90;999.90;;;24.90;90.80;;;;;;5118559;28;20031;-78
2023/10/09 13:56:18;;;;;;;1999.90;999.90;;;24.80;90.50;;;;;;5119040;28;20032;-79
2023/10/09 13:58:45;;;;;;;1999.90;999.90;;;24.80;90.40;;;;;;5100612;28;20066;-78
2023/10/09 14:01:11;;;;;;;1999.90;999.90;;;24.90;88.90;;;;;;5118575;27;20039;-78
2023/10/09 14:03:38;;;;;;;1999.90;999.90;;;25.00;89.30;;;;;;5119146;28;20025;-79
2023/10/09 14:06:12;;;;;;;1999.90;999.90;;;25.10;89.40;;;;;;5099977;28;20032;-78
2023/10/09 14:08:44;;;;;;;1999.90;999.90;;;25.00;88.70;;;;;;5118626;28;20039;-79
2023/10/09 14:11:13;;;;;;;1999.90;999.90;;;24.90;88.50;;;;;;5099923;28;20062;-78
2023/10/09 14:13:42;;;;;;;1999.90;999.90;;;24.80;87.80;;;;;;5099885;28;20170;-79
2023/10/09 14:16:23;;;;;;;1999.90;999.90;;;24.80;88.20;;;;;;5118573;28;20035;-78
2023/10/09 14:18:53;;;;;;;1999.90;999.90;;;24.80;88.60;;;;;;5119123;28;20028;-79
2023/10/09 14:21:20;;;;;;;1999.90;999.90;;;24.80;88.40;;;;;;5118739;28;20089;-79
2023/10/09 14:23:48;;;;;;;1999.90;999.90;;;24.70;89.40;;;;;;5116983;27;20036;-78
2023/10/09 14:26:14;;;;;;;1999.90;999.90;;;24.80;89.90;;;;;;5099541;28;20056;-79
2023/10/09 14:28:39;;;;;;;1999.90;999.90;;;24.90;90.00;;;;;;5118507;28;20070;-78
2023/10/09 14:31:11;;;;;;;1999.90;999.90;;;24.90;90.00;;;;;;5100007;28;20101;-78
2023/10/09 14:33:37;;;;;;;1999.90;999.90;;;25.00;89.00;;;;;;5100039;28;20799;-78
2023/10/09 14:36:05;;;;;;;1999.90;999.90;;;25.10;87.50;;;;;;5099129;28;20032;-79
2023/10/09 14:38:32;;;;;;;1999.90;999.90;;;25.10;87.60;;;;;;5118084;28;20032;-79